createdAt,value
2023-05-05T00:00:58.119Z,45.01
2023-05-05T00:03:25.575Z,44.66
2023-05-05T00:05:54.468Z,44.25
2023-05-05T00:08:22.166Z,44.02
2023-05-05T00:10:50.678Z,43.64
2023-05-05T00:13:18.081Z,42.79
2023-05-05T00:15:46.212Z,42.71
2023-05-05T00:18:15.982Z,42.92
2023-05-05T00:20:43.732Z,43.20
2023-05-05T00:23:10.725Z,43.40
2023-05-05T00:25:37.736Z,44.10
2023-05-05T00:28:04.952Z,44.17
2023-05-05T00:30:31.962Z,44.78
2023-05-05T00:32:59.031Z,44.47
2023-05-05T00:35:27.314Z,44.90
2023-05-05T00:37:55.129Z,45.33
2023-05-05T00:40:22.194Z,45.65
2023-05-05T00:42:52.503Z,45.48
2023-05-05T00:45:19.961Z,45.15
2023-05-05T00:47:52.540Z,44.67
2023-05-05T00:50:26.855Z,44.89
2023-05-05T00:52:58.807Z,44.89
2023-05-05T00:55:26.275Z,45.16
2023-05-05T00:57:53.488Z,45.64
2023-05-05T01:00:20.475Z,46.00
2023-05-05T01:02:47.628Z,46.29
2023-05-05T01:05:15.155Z,46.56
2023-05-05T01:08:19.611Z,46.67
2023-05-05T01:10:52.592Z,46.94
2023-05-05T01:13:31.866Z,47.69
2023-05-05T01:16:12.650Z,47.50
2023-05-05T01:19:05.880Z,47.67
2023-05-05T01:21:36.330Z,47.38
2023-05-05T01:24:45.169Z,47.05
2023-05-05T01:27:55.718Z,46.73
2023-05-05T01:30:46.066Z,46.42
2023-05-05T01:33:15.433Z,46.51
2023-05-05T01:35:52.530Z,46.31
2023-05-05T01:38:22.404Z,46.22
2023-05-05T01:40:52.030Z,46.31
2023-05-05T01:43:20.211Z,46.65
2023-05-05T01:45:47.430Z,46.19
2023-05-05T01:48:16.430Z,45.87
2023-05-05T01:50:43.476Z,46.25
2023-05-05T01:53:10.486Z,46.41
2023-05-05T01:55:37.486Z,46.10
2023-05-05T01:58:04.864Z,46.29
2023-05-05T02:00:32.187Z,46.09
2023-05-05T02:02:59.980Z,46.04
2023-05-05T02:05:27.212Z,46.17
2023-05-05T02:07:56.847Z,45.97
2023-05-05T02:10:24.287Z,45.30
2023-05-05T02:12:51.520Z,44.41
2023-05-05T02:15:18.889Z,44.64
2023-05-05T02:17:45.865Z,44.66
2023-05-05T02:20:13.188Z,44.45
2023-05-05T02:22:40.459Z,44.46
2023-05-05T02:25:08.206Z,44.54
2023-05-05T02:27:35.626Z,44.63
2023-05-05T02:30:05.037Z,44.40
2023-05-05T02:32:34.914Z,44.57
2023-05-05T02:35:07.351Z,44.46
2023-05-05T02:37:36.560Z,45.02
2023-05-05T02:40:05.457Z,45.28
2023-05-05T02:42:39.514Z,45.67
2023-05-05T02:45:14.563Z,45.89
2023-05-05T02:47:45.428Z,46.22
2023-05-05T02:50:12.933Z,46.39
2023-05-05T02:52:46.067Z,45.73
2023-05-05T02:55:15.606Z,46.19
2023-05-05T02:58:06.790Z,46.34
2023-05-05T03:00:58.174Z,46.16
2023-05-05T03:03:46.896Z,46.29
2023-05-05T03:06:21.275Z,46.45
2023-05-05T03:09:34.798Z,46.70
2023-05-05T03:12:06.725Z,46.67
2023-05-05T03:14:44.051Z,47.08
2023-05-05T03:17:14.298Z,47.29
2023-05-05T03:19:42.069Z,47.32
2023-05-05T03:22:09.171Z,46.76
2023-05-05T03:24:37.836Z,46.83
2023-05-05T03:27:08.621Z,47.24
2023-05-05T03:29:38.492Z,46.59
2023-05-05T03:32:09.666Z,47.50
2023-05-05T03:34:37.916Z,47.06
2023-05-05T03:37:06.090Z,47.06
2023-05-05T03:39:33.449Z,47.23
2023-05-05T03:42:00.794Z,46.95
2023-05-05T03:44:31.615Z,47.73
2023-05-05T03:46:58.659Z,48.38
2023-05-05T03:49:26.878Z,48.27
2023-05-05T03:51:54.352Z,48.53
2023-05-05T03:54:21.410Z,48.45
2023-05-05T03:56:48.381Z,47.54
2023-05-05T03:59:16.087Z,48.22
2023-05-05T04:01:45.139Z,47.48
2023-05-05T04:04:12.477Z,46.68
2023-05-05T04:06:39.583Z,47.11
2023-05-05T04:09:07.273Z,47.92
2023-05-05T04:11:34.277Z,47.72
2023-05-05T04:14:01.388Z,47.14
2023-05-05T04:16:31.143Z,47.18
2023-05-05T04:18:59.330Z,47.14
2023-05-05T04:21:27.201Z,46.34
2023-05-05T04:23:54.295Z,46.14
2023-05-05T04:26:22.291Z,46.33
2023-05-05T04:28:49.674Z,46.04
2023-05-05T04:31:18.230Z,46.68
2023-05-05T04:33:46.427Z,47.44
2023-05-05T04:36:14.125Z,47.35
2023-05-05T04:38:41.696Z,46.93
2023-05-05T04:41:08.781Z,46.66
2023-05-05T04:43:37.882Z,46.22
2023-05-05T04:46:05.210Z,46.16
2023-05-05T04:48:34.510Z,46.45
2023-05-05T04:51:07.117Z,45.62
2023-05-05T04:53:34.857Z,45.34
2023-05-05T04:56:02.182Z,46.99
2023-05-05T04:58:29.230Z,47.30
2023-05-05T05:00:56.304Z,45.81
2023-05-05T05:03:23.537Z,46.05
2023-05-05T05:05:50.714Z,45.46
2023-05-05T05:08:17.873Z,44.34
2023-05-05T05:10:45.031Z,43.96
2023-05-05T05:13:12.852Z,43.30
2023-05-05T05:15:40.857Z,43.04
2023-05-05T05:18:08.154Z,42.46
2023-05-05T05:20:35.424Z,43.33
2023-05-05T05:23:02.557Z,43.14
2023-05-05T05:25:31.116Z,42.16
2023-05-05T05:28:08.914Z,41.70
2023-05-05T05:30:41.425Z,45.09
2023-05-05T05:33:10.791Z,45.69
2023-05-05T05:35:38.734Z,44.58
2023-05-05T05:38:06.450Z,43.55
2023-05-05T05:40:33.800Z,42.99
2023-05-05T05:43:01.060Z,43.01
2023-05-05T05:45:28.739Z,43.35
2023-05-05T05:47:55.914Z,44.09
2023-05-05T05:50:24.540Z,47.03
2023-05-05T05:52:51.934Z,46.90
2023-05-05T05:55:19.531Z,47.70
2023-05-05T05:57:46.509Z,47.75
2023-05-05T06:00:15.850Z,48.97
2023-05-05T06:02:48.372Z,47.67
2023-05-05T06:05:18.780Z,47.83
2023-05-05T06:07:47.010Z,49.19
2023-05-05T06:10:26.560Z,48.94
2023-05-05T06:12:59.710Z,50.42
2023-05-05T06:15:26.989Z,51.82
2023-05-05T06:17:54.240Z,49.91
2023-05-05T06:20:22.490Z,46.15
2023-05-05T06:22:49.561Z,47.37
2023-05-05T06:25:17.210Z,49.09
2023-05-05T06:27:44.810Z,48.55
2023-05-05T06:30:12.224Z,45.86
2023-05-05T06:32:39.418Z,47.09
2023-05-05T06:35:07.261Z,48.04
2023-05-05T06:37:34.271Z,46.43
2023-05-05T06:40:01.379Z,46.00
2023-05-05T06:42:28.579Z,45.84
2023-05-05T06:44:58.189Z,44.32
2023-05-05T06:47:25.439Z,41.94
2023-05-05T06:49:52.411Z,43.33
2023-05-05T06:52:19.456Z,46.49
2023-05-05T06:54:46.397Z,45.67
2023-05-05T06:57:13.419Z,46.25
2023-05-05T06:59:40.476Z,46.65
2023-05-05T07:02:07.602Z,46.14
2023-05-05T07:04:34.676Z,46.03
2023-05-05T07:07:01.952Z,43.08
2023-05-05T07:09:29.031Z,44.36
2023-05-05T07:11:56.099Z,43.00
2023-05-05T07:14:24.496Z,42.25
2023-05-05T07:16:51.750Z,42.04
2023-05-05T07:19:18.830Z,43.12
2023-05-05T07:21:47.329Z,45.43
2023-05-05T07:24:14.281Z,44.89
2023-05-05T07:26:41.267Z,44.10
2023-05-05T07:29:08.214Z,41.56
2023-05-05T07:31:35.249Z,41.17
2023-05-05T07:34:02.237Z,40.82
2023-05-05T07:36:29.277Z,40.85
2023-05-05T07:38:56.323Z,41.25
2023-05-05T07:41:23.742Z,42.16
2023-05-05T07:43:51.011Z,41.28
2023-05-05T07:46:18.375Z,41.23
2023-05-05T07:48:45.544Z,40.05
2023-05-05T07:51:12.587Z,39.37
2023-05-05T07:53:41.098Z,41.05
2023-05-05T07:56:09.068Z,42.99
2023-05-05T07:58:36.338Z,43.52
2023-05-05T08:01:06.034Z,44.47
2023-05-05T08:03:33.420Z,44.15
2023-05-05T08:06:06.796Z,42.68
2023-05-05T08:08:33.877Z,44.04
2023-05-05T08:11:01.351Z,42.14
2023-05-05T08:13:28.767Z,41.27
2023-05-05T08:15:56.330Z,38.78
2023-05-05T08:18:24.530Z,39.04
2023-05-05T08:20:52.992Z,38.87
2023-05-05T08:23:20.078Z,37.35
2023-05-05T08:25:47.124Z,38.13
2023-05-05T08:28:14.090Z,38.50
2023-05-05T08:30:41.460Z,36.03
2023-05-05T08:33:08.530Z,41.23
2023-05-05T08:35:35.486Z,42.72
2023-05-05T08:38:02.570Z,42.12
2023-05-05T08:40:33.048Z,42.58
2023-05-05T08:43:01.021Z,42.95
2023-05-05T08:45:31.201Z,41.19
2023-05-05T08:48:02.917Z,41.26
2023-05-05T08:50:30.462Z,41.12
2023-05-05T08:53:03.278Z,41.27
2023-05-05T08:55:34.301Z,40.67
2023-05-05T08:58:04.213Z,40.22
2023-05-05T09:00:31.343Z,37.24
2023-05-05T09:02:59.185Z,36.82
2023-05-05T09:05:26.575Z,38.75
2023-05-05T09:07:53.579Z,39.45
2023-05-05T09:10:21.041Z,36.61
2023-05-05T09:12:50.448Z,36.99
2023-05-05T09:15:17.458Z,35.68
2023-05-05T09:17:44.667Z,37.10
2023-05-05T09:20:12.749Z,36.69
2023-05-05T09:22:47.024Z,39.19
2023-05-05T09:25:15.166Z,39.23
2023-05-05T09:27:43.501Z,39.59
2023-05-05T09:30:11.120Z,37.34
2023-05-05T09:32:49.885Z,36.92
2023-05-05T09:35:17.491Z,40.01
2023-05-05T09:37:44.543Z,38.61
2023-05-05T09:40:13.312Z,39.38
2023-05-05T09:42:40.547Z,39.60
2023-05-05T09:45:27.950Z,37.52
2023-05-05T09:47:59.839Z,37.79
2023-05-05T09:50:30.424Z,36.99
2023-05-05T09:52:58.613Z,38.44
2023-05-05T09:55:26.009Z,40.25
2023-05-05T09:57:53.155Z,38.64
2023-05-05T10:00:20.615Z,37.20
2023-05-05T10:02:47.619Z,36.27
2023-05-05T10:05:16.028Z,35.49
2023-05-05T10:07:44.710Z,34.45
2023-05-05T10:10:16.679Z,34.71
2023-05-05T10:12:44.249Z,36.35
2023-05-05T10:15:11.739Z,34.09
2023-05-05T10:20:18.702Z,33.48
2023-05-05T10:22:53.447Z,36.79
2023-05-05T10:25:29.756Z,36.86
2023-05-05T10:27:59.388Z,37.81
2023-05-05T10:30:31.873Z,37.74
2023-05-05T10:33:22.665Z,35.24
2023-05-05T10:35:51.685Z,35.50
2023-05-05T10:38:18.665Z,34.88
2023-05-05T10:40:46.004Z,34.77
2023-05-05T10:43:14.223Z,32.73
2023-05-05T10:45:41.890Z,34.85
2023-05-05T10:48:19.012Z,34.05
2023-05-05T10:50:49.967Z,33.20
2023-05-05T10:53:28.883Z,33.92
2023-05-05T10:56:06.532Z,34.21
2023-05-05T10:58:43.728Z,33.18
2023-05-05T11:01:34.992Z,31.73
2023-05-05T11:04:17.271Z,31.15
2023-05-05T11:07:11.801Z,32.59
2023-05-05T11:10:14.662Z,32.87
2023-05-05T11:13:02.956Z,32.14
2023-05-05T11:15:30.400Z,31.11
2023-05-05T11:18:03.204Z,31.44
2023-05-05T11:20:40.889Z,31.39
2023-05-05T11:23:07.902Z,33.12
2023-05-05T11:25:39.125Z,31.10
2023-05-05T11:28:12.071Z,32.58
2023-05-05T11:31:17.746Z,30.73
2023-05-05T11:33:44.979Z,32.49
2023-05-05T11:36:15.730Z,31.49
2023-05-05T11:39:01.664Z,31.12
2023-05-05T11:41:32.057Z,32.56
2023-05-05T11:44:18.281Z,32.02
2023-05-05T11:46:51.366Z,31.14
2023-05-05T11:49:27.945Z,30.44
2023-05-05T11:51:58.016Z,30.95
2023-05-05T11:54:25.401Z,31.61
2023-05-05T11:56:53.851Z,30.98
2023-05-05T11:59:21.056Z,33.20
2023-05-05T12:01:48.031Z,34.74
2023-05-05T12:04:15.372Z,32.72
2023-05-05T12:06:42.709Z,31.85
2023-05-05T12:09:16.179Z,31.75
2023-05-05T12:11:49.938Z,30.78
2023-05-05T12:14:17.028Z,31.08
2023-05-05T12:17:13.090Z,33.61
2023-05-05T12:19:53.565Z,33.43
2023-05-05T12:22:27.064Z,33.99
2023-05-05T12:24:55.130Z,33.17
2023-05-05T12:27:22.344Z,34.14
2023-05-05T12:29:49.430Z,34.61
2023-05-05T12:32:29.315Z,32.59
2023-05-05T12:34:57.595Z,31.38
2023-05-05T12:37:25.624Z,31.98
2023-05-05T12:39:54.905Z,32.30
2023-05-05T12:42:22.280Z,30.32
2023-05-05T12:44:49.298Z,31.09
2023-05-05T12:47:30.479Z,30.07
2023-05-05T12:49:57.739Z,30.84
2023-05-05T12:52:24.742Z,31.31
2023-05-05T12:55:00.630Z,31.58
2023-05-05T12:57:27.657Z,31.49
2023-05-05T12:59:54.701Z,33.46
2023-05-05T13:02:21.753Z,33.72
2023-05-05T13:04:53.296Z,32.79
2023-05-05T13:07:21.330Z,34.21
2023-05-05T13:09:49.078Z,32.65
2023-05-05T13:12:18.561Z,31.36
2023-05-05T13:14:46.726Z,31.48
2023-05-05T13:17:14.122Z,32.11
2023-05-05T13:19:46.624Z,32.52
2023-05-05T13:22:13.851Z,31.71
2023-05-05T13:24:50.676Z,30.20
2023-05-05T13:27:19.353Z,30.86
2023-05-05T13:29:46.784Z,32.79
2023-05-05T13:32:13.829Z,32.24
2023-05-05T13:34:41.567Z,35.03
2023-05-05T13:37:08.804Z,34.21
2023-05-05T13:39:36.987Z,33.42
2023-05-05T13:42:04.202Z,32.66
2023-05-05T13:44:31.475Z,32.06
2023-05-05T13:46:58.647Z,33.03
2023-05-05T13:49:25.839Z,35.93
2023-05-05T13:51:52.837Z,31.07
2023-05-05T13:54:19.844Z,30.77
2023-05-05T13:56:47.028Z,33.50
2023-05-05T13:59:14.109Z,32.46
2023-05-05T14:01:41.339Z,33.38
2023-05-05T14:04:08.537Z,35.27
2023-05-05T14:06:36.260Z,33.39
2023-05-05T14:09:05.932Z,33.17
2023-05-05T14:11:33.327Z,32.91
2023-05-05T14:14:00.761Z,33.53
2023-05-05T14:16:27.761Z,33.35
2023-05-05T14:18:54.767Z,33.51
2023-05-05T14:21:23.719Z,35.34
2023-05-05T14:23:51.166Z,37.41
2023-05-05T14:26:18.173Z,38.33
2023-05-05T14:28:46.729Z,39.32
2023-05-05T14:31:15.330Z,39.49
2023-05-05T14:33:45.331Z,41.25
2023-05-05T14:36:12.669Z,42.56
2023-05-05T14:38:39.676Z,42.16
2023-05-05T14:41:06.769Z,41.16
2023-05-05T14:43:33.801Z,41.07
2023-05-05T14:46:05.784Z,41.98
2023-05-05T14:48:33.736Z,42.09
2023-05-05T14:51:00.827Z,42.45
2023-05-05T14:53:27.773Z,41.70
2023-05-05T14:55:54.968Z,41.50
2023-05-05T14:58:24.623Z,41.72
2023-05-05T15:00:52.893Z,41.75
2023-05-05T15:03:20.047Z,41.10
2023-05-05T15:05:47.149Z,41.71
2023-05-05T15:08:14.634Z,41.29
2023-05-05T15:10:41.572Z,39.68
2023-05-05T15:13:08.754Z,40.93
2023-05-05T15:15:35.972Z,38.91
2023-05-05T15:18:03.074Z,40.21
2023-05-05T15:20:30.065Z,40.13
2023-05-05T15:22:57.344Z,40.17
2023-05-05T15:25:24.326Z,40.73
2023-05-05T15:27:51.535Z,39.93
2023-05-05T15:30:18.537Z,39.79
2023-05-05T15:32:45.641Z,39.31
2023-05-05T15:35:13.024Z,39.44
2023-05-05T15:37:40.908Z,39.69
2023-05-05T15:40:08.661Z,39.58
2023-05-05T15:42:35.891Z,39.75
2023-05-05T15:45:03.040Z,39.37
2023-05-05T15:47:31.387Z,38.79
2023-05-05T15:49:58.358Z,38.53
2023-05-05T15:52:25.424Z,39.33
2023-05-05T15:54:52.449Z,39.48
2023-05-05T15:57:19.548Z,39.88
2023-05-05T15:59:46.576Z,41.25
2023-05-05T16:02:13.727Z,41.36
2023-05-05T16:04:40.804Z,39.91
2023-05-05T16:07:07.784Z,40.32
2023-05-05T16:09:34.765Z,40.10
2023-05-05T16:12:02.765Z,40.54
2023-05-05T16:14:32.194Z,41.75
2023-05-05T16:16:59.334Z,40.61
2023-05-05T16:19:30.158Z,41.61
2023-05-05T16:21:57.231Z,42.18
2023-05-05T16:24:24.218Z,43.08
2023-05-05T16:26:51.550Z,43.89
2023-05-05T16:29:18.637Z,43.73
2023-05-05T16:31:45.676Z,43.59
2023-05-05T16:34:12.714Z,44.96
2023-05-05T16:36:39.703Z,44.02
2023-05-05T16:39:07.097Z,43.27
2023-05-05T16:41:34.475Z,43.36
2023-05-05T16:44:01.480Z,43.52
2023-05-05T16:46:28.485Z,41.77
2023-05-05T16:48:55.733Z,41.58
2023-05-05T16:51:22.723Z,41.45
2023-05-05T16:53:49.901Z,40.73
2023-05-05T16:56:16.914Z,40.89
2023-05-05T16:58:43.940Z,41.68
2023-05-05T17:01:11.022Z,41.68
2023-05-05T17:03:39.129Z,40.89
2023-05-05T17:06:06.217Z,40.57
2023-05-05T17:08:33.212Z,41.42
2023-05-05T17:11:00.258Z,39.57
2023-05-05T17:13:27.306Z,40.56
2023-05-05T17:15:54.327Z,39.32
2023-05-05T17:18:22.788Z,38.73
2023-05-05T17:20:50.268Z,38.75
2023-05-05T17:23:17.320Z,38.49
2023-05-05T17:25:44.364Z,38.84
2023-05-05T17:28:11.807Z,38.78
2023-05-05T17:30:38.748Z,38.84
2023-05-05T17:33:05.761Z,39.50
2023-05-05T17:35:32.945Z,39.71
2023-05-05T17:37:59.944Z,39.96
2023-05-05T17:40:27.126Z,39.77
2023-05-05T17:42:54.441Z,39.56
2023-05-05T17:45:21.411Z,40.04
2023-05-05T17:47:48.527Z,40.46
2023-05-05T17:50:15.500Z,40.79
2023-05-05T17:52:45.083Z,40.56
2023-05-05T17:55:12.673Z,40.76
2023-05-05T17:57:39.862Z,41.16
2023-05-05T18:00:07.374Z,41.33
2023-05-05T18:02:40.555Z,42.08
2023-05-05T18:05:08.763Z,42.19
2023-05-05T18:07:36.010Z,42.56
2023-05-05T18:10:03.036Z,42.00
2023-05-05T18:12:30.660Z,42.49
2023-05-05T18:14:57.653Z,42.34
2023-05-05T18:17:24.613Z,42.63
2023-05-05T18:19:51.648Z,42.78
2023-05-05T18:22:18.630Z,42.24
2023-05-05T18:24:46.457Z,42.98
2023-05-05T18:27:13.452Z,43.35
2023-05-05T18:29:40.536Z,45.01
2023-05-05T18:32:07.561Z,44.57
2023-05-05T18:34:34.766Z,46.71
2023-05-05T18:37:02.015Z,48.13
2023-05-05T18:39:29.166Z,46.35
2023-05-05T18:41:56.300Z,45.26
2023-05-05T18:44:23.384Z,43.87
2023-05-05T18:46:50.678Z,42.80
2023-05-05T18:49:17.743Z,43.71
2023-05-05T18:51:44.881Z,43.91
2023-05-05T18:54:12.023Z,44.35
2023-05-05T18:56:39.072Z,46.40
2023-05-05T18:59:06.217Z,47.49
2023-05-05T19:01:33.364Z,48.87
2023-05-05T19:04:00.868Z,50.51
2023-05-05T19:06:28.051Z,51.75
2023-05-05T19:08:56.797Z,52.71
2023-05-05T19:11:24.296Z,53.04
2023-05-05T19:13:51.442Z,52.32
2023-05-05T19:16:18.577Z,52.63
2023-05-05T19:18:45.971Z,53.40
2023-05-05T19:21:13.024Z,53.47
2023-05-05T19:23:41.033Z,54.74
2023-05-05T19:26:08.155Z,57.37
2023-05-05T19:28:35.256Z,58.23
2023-05-05T19:31:02.343Z,59.58
2023-05-05T19:33:29.442Z,64.06
2023-05-05T19:35:56.638Z,64.93
2023-05-05T19:38:23.866Z,64.54
2023-05-05T19:40:51.123Z,62.59
2023-05-05T19:43:18.482Z,61.17
2023-05-05T19:45:46.280Z,64.24
2023-05-05T19:48:13.439Z,64.47
2023-05-05T19:50:40.782Z,64.58
2023-05-05T19:53:08.093Z,64.68
2023-05-05T19:55:35.737Z,65.20
2023-05-05T19:58:02.833Z,67.83
2023-05-05T20:00:30.122Z,65.95
2023-05-05T20:02:57.475Z,64.81
2023-05-05T20:05:24.737Z,66.64
2023-05-05T20:07:51.990Z,65.92
2023-05-05T20:10:19.205Z,66.45
2023-05-05T20:12:48.336Z,63.86
2023-05-05T20:15:19.685Z,64.34
2023-05-05T20:17:47.558Z,66.91
2023-05-05T20:20:20.384Z,65.45
2023-05-05T20:22:47.671Z,63.33
2023-05-05T20:25:18.028Z,65.51
2023-05-05T20:27:45.917Z,67.59
2023-05-05T20:30:13.449Z,69.03
2023-05-05T20:32:41.497Z,69.67
2023-05-05T20:35:09.290Z,70.31
2023-05-05T20:37:36.390Z,67.60
2023-05-05T20:40:07.840Z,66.78
2023-05-05T20:42:35.425Z,64.21
2023-05-05T20:45:02.559Z,62.98
2023-05-05T20:47:30.072Z,62.62
2023-05-05T20:49:57.429Z,62.57
2023-05-05T20:52:24.459Z,61.07
2023-05-05T20:54:51.506Z,60.07
2023-05-05T20:57:18.555Z,57.99
2023-05-05T20:59:45.954Z,58.48
2023-05-05T21:02:13.148Z,62.99
2023-05-05T21:04:40.203Z,62.77
2023-05-05T21:07:07.326Z,62.20
2023-05-05T21:09:37.437Z,60.36
2023-05-05T21:12:04.722Z,64.79
2023-05-05T21:14:31.737Z,67.63
2023-05-05T21:16:58.910Z,66.67
2023-05-05T21:19:25.980Z,64.18
2023-05-05T21:21:53.756Z,63.34
2023-05-05T21:24:21.266Z,63.00
2023-05-05T21:26:48.492Z,61.34
2023-05-05T21:29:15.554Z,60.60
2023-05-05T21:31:42.579Z,60.39
2023-05-05T21:34:09.559Z,61.18
2023-05-05T21:36:37.169Z,62.38
2023-05-05T21:39:04.226Z,62.40
2023-05-05T21:41:31.252Z,61.66
2023-05-05T21:43:58.429Z,60.47
2023-05-05T21:46:25.455Z,59.71
2023-05-05T21:48:52.543Z,59.16
2023-05-05T21:51:19.928Z,60.13
2023-05-05T21:53:46.977Z,62.30
2023-05-05T21:56:14.119Z,60.35
2023-05-05T21:58:41.230Z,59.05
2023-05-05T22:01:08.420Z,58.19
2023-05-05T22:03:35.978Z,59.36
2023-05-05T22:06:21.649Z,59.09
2023-05-05T22:09:07.720Z,62.99
2023-05-05T22:11:34.718Z,62.52
2023-05-05T22:14:01.704Z,61.03
2023-05-05T22:16:28.916Z,59.98
2023-05-05T22:18:55.933Z,61.04
2023-05-05T22:21:22.931Z,62.06
2023-05-05T22:23:50.130Z,60.41
2023-05-05T22:26:17.182Z,60.74
2023-05-05T22:28:44.122Z,62.98
2023-05-05T22:31:11.659Z,61.05
2023-05-05T22:33:38.656Z,60.95
2023-05-05T22:36:05.911Z,60.10
2023-05-05T22:38:32.897Z,59.56
2023-05-05T22:41:00.130Z,59.75
2023-05-05T22:43:27.126Z,58.49
2023-05-05T22:45:54.340Z,59.00
2023-05-05T22:48:21.731Z,58.54
2023-05-05T22:50:48.858Z,57.86
2023-05-05T22:53:15.818Z,57.88
2023-05-05T22:55:43.309Z,57.75
2023-05-05T22:58:10.353Z,57.63
2023-05-05T23:00:37.369Z,56.99
2023-05-05T23:03:04.424Z,57.21
2023-05-05T23:05:31.487Z,57.25
2023-05-05T23:08:01.198Z,57.53
2023-05-05T23:10:29.069Z,57.52
2023-05-05T23:12:56.127Z,57.91
2023-05-05T23:15:23.899Z,57.01
2023-05-05T23:17:51.892Z,56.03
2023-05-05T23:20:19.294Z,56.26
2023-05-05T23:22:46.234Z,56.02
2023-05-05T23:25:13.185Z,55.96
2023-05-05T23:27:41.110Z,55.99
2023-05-05T23:30:09.153Z,55.51
2023-05-05T23:32:36.502Z,55.25
2023-05-05T23:35:04.221Z,54.85
2023-05-05T23:37:31.290Z,54.75
2023-05-05T23:39:58.303Z,55.20
2023-05-05T23:42:25.436Z,55.48
2023-05-05T23:44:52.850Z,55.48
2023-05-05T23:47:19.936Z,55.66
2023-05-05T23:49:47.231Z,55.44
2023-05-05T23:52:14.291Z,55.77
2023-05-05T23:54:41.565Z,55.61
2023-05-05T23:57:08.592Z,55.99
2023-05-05T23:59:35.632Z,55.50
